createdAt,value
2022-12-14T06:03:45.851Z,98802.84
2022-12-14T06:06:13.761Z,98805.47
2022-12-14T06:08:44.928Z,98801.97
2022-12-14T06:11:20.640Z,98805.44
2022-12-14T06:13:47.479Z,98822.72
2022-12-14T06:16:25.352Z,98816.66
2022-12-14T06:18:54.147Z,98814.91
2022-12-14T06:21:27.315Z,98815.78
2022-12-14T06:23:57.582Z,98809.69
2022-12-14T06:26:26.412Z,98801.03
2022-12-14T06:28:53.437Z,98800.16
2022-12-14T06:31:23.387Z,98791.53
2022-12-14T06:33:50.017Z,98792.38
2022-12-14T06:36:25.286Z,98781.13
2022-12-14T06:38:52.439Z,98787.16
2022-12-14T06:41:20.887Z,98790.63
2022-12-14T06:43:49.543Z,98790.63
2022-12-14T06:46:20.106Z,98784.56
2022-12-14T06:48:51.471Z,98784.59
2022-12-14T06:51:19.828Z,98778.53
2022-12-14T06:53:46.709Z,98784.56
2022-12-14T06:56:17.955Z,98777.63
2022-12-14T06:58:45.275Z,98776.78
2022-12-14T07:01:18.334Z,98779.38
2022-12-14T07:03:49.801Z,98775.06
2022-12-14T07:06:17.490Z,98775.94
2022-12-14T07:08:44.119Z,98778.50
2022-12-14T07:11:14.070Z,98769.84
2022-12-14T07:13:40.949Z,98772.44
2022-12-14T07:16:14.910Z,98767.25
2022-12-14T07:18:41.641Z,98762.06
2022-12-14T07:21:11.613Z,98763.81
2022-12-14T07:23:39.158Z,98772.47
2022-12-14T07:26:12.242Z,98767.25
2022-12-14T07:28:40.619Z,98765.53
2022-12-14T07:31:13.008Z,98769.84
2022-12-14T07:33:39.634Z,98763.81
2022-12-14T07:36:16.091Z,98770.75
2022-12-14T07:38:44.307Z,98758.69
2022-12-14T07:41:18.945Z,98767.34
2022-12-14T07:43:50.107Z,98769.09
2022-12-14T07:46:22.700Z,98761.34
2022-12-14T07:48:52.198Z,98763.97
2022-12-14T07:51:28.830Z,98764.84
2022-12-14T07:53:55.769Z,98762.28
2022-12-14T07:56:25.295Z,98773.53
2022-12-14T07:58:54.142Z,98759.75
2022-12-14T08:01:24.560Z,98759.78
2022-12-14T08:03:56.905Z,98758.94
2022-12-14T08:06:27.019Z,98752.91
2022-12-14T08:08:53.926Z,98753.78
2022-12-14T08:11:24.795Z,98746.03
2022-12-14T08:13:54.906Z,98748.63
2022-12-14T08:16:22.568Z,98737.38
2022-12-14T08:18:50.291Z,98739.94
2022-12-14T08:21:21.182Z,98743.41
2022-12-14T08:23:51.544Z,98739.94
2022-12-14T08:26:19.399Z,98745.13
2022-12-14T08:28:47.638Z,98745.97
2022-12-14T08:31:17.805Z,98752.03
2022-12-14T08:33:45.349Z,98750.31
2022-12-14T08:36:18.222Z,98743.34
2022-12-14T08:38:45.233Z,98736.38
2022-12-14T08:41:13.861Z,98738.97
2022-12-14T08:43:41.814Z,98746.78
2022-12-14T08:46:10.115Z,98736.34
2022-12-14T08:48:38.168Z,98746.72
2022-12-14T08:51:07.380Z,98754.53
2022-12-14T08:53:35.781Z,98754.50
2022-12-14T08:56:07.201Z,98759.66
2022-12-14T08:58:35.022Z,98751.84
2022-12-14T09:01:06.227Z,98753.56
2022-12-14T09:03:33.986Z,98760.47
2022-12-14T09:06:06.047Z,98746.56
2022-12-14T09:08:33.457Z,98752.63
2022-12-14T09:11:00.592Z,98747.41
2022-12-14T09:13:28.552Z,98749.97
2022-12-14T09:16:00.952Z,98748.22
2022-12-14T09:18:29.336Z,98751.66
2022-12-14T09:20:56.834Z,98748.19
2022-12-14T09:23:27.374Z,98753.34
2022-12-14T09:26:04.921Z,98748.13
2022-12-14T09:28:34.450Z,98751.53
2022-12-14T09:31:04.088Z,98748.91
2022-12-14T09:33:32.039Z,98759.34
2022-12-14T09:36:04.603Z,98757.56
2022-12-14T09:38:33.849Z,98756.66
2022-12-14T09:41:07.232Z,98754.88
2022-12-14T09:43:44.243Z,98756.63
2022-12-14T09:46:16.574Z,98761.78
2022-12-14T09:48:44.136Z,98758.31
2022-12-14T09:51:16.681Z,98757.47
2022-12-14T09:53:46.810Z,98756.63
2022-12-14T09:56:17.308Z,98758.38
2022-12-14T09:58:54.840Z,98752.31
2022-12-14T10:01:24.891Z,98754.94
2022-12-14T10:04:07.150Z,98756.69
2022-12-14T10:06:47.029Z,98750.59
2022-12-14T10:09:20.751Z,98753.28
2022-12-14T10:12:14.311Z,98757.63
2022-12-14T10:15:19.130Z,98756.78
2022-12-14T10:18:27.550Z,98752.47
2022-12-14T10:21:11.266Z,98755.09
2022-12-14T10:23:44.944Z,98746.44
2022-12-14T10:26:16.888Z,98748.22
2022-12-14T10:29:00.992Z,98749.06
2022-12-14T10:32:04.421Z,98737.81
2022-12-14T10:34:32.436Z,98734.34
2022-12-14T10:37:14.695Z,98733.53
2022-12-14T10:40:11.346Z,98734.38
2022-12-14T10:42:53.674Z,98733.53
2022-12-14T10:45:44.589Z,98725.75
2022-12-14T10:48:49.511Z,98726.56
2022-12-14T10:51:25.754Z,98725.69
2022-12-14T10:54:00.704Z,98722.19
2022-12-14T10:56:34.005Z,98723.00
2022-12-14T10:59:18.784Z,98703.00
2022-12-14T11:01:49.179Z,98708.13
2022-12-14T11:04:22.188Z,98709.00
2022-12-14T11:06:49.758Z,98702.03
2022-12-14T11:09:24.337Z,98697.66
2022-12-14T11:12:00.302Z,98701.97
2022-12-14T11:14:27.681Z,98702.81
2022-12-14T11:16:55.118Z,98699.34
2022-12-14T11:19:24.600Z,98702.78
2022-12-14T11:22:06.802Z,98698.47
2022-12-14T11:24:35.633Z,98689.75
2022-12-14T11:27:06.200Z,98690.50
2022-12-14T11:29:36.922Z,98690.47
2022-12-14T11:32:06.106Z,98673.91
2022-12-14T11:34:42.214Z,98676.44
2022-12-14T11:37:31.878Z,98680.78
2022-12-14T11:40:01.571Z,98676.50
2022-12-14T11:42:29.193Z,98674.72
2022-12-14T11:45:33.969Z,98671.22
2022-12-14T11:48:13.453Z,98673.75
2022-12-14T11:50:41.055Z,98667.69
2022-12-14T11:53:13.596Z,98671.16
2022-12-14T11:55:45.422Z,98669.34
2022-12-14T11:58:20.743Z,98665.78
2022-12-14T12:00:55.331Z,98659.63
2022-12-14T12:03:28.303Z,98667.47
2022-12-14T12:06:03.303Z,98673.47
2022-12-14T12:08:33.789Z,98665.66
2022-12-14T12:11:04.079Z,98667.41
2022-12-14T12:13:40.259Z,98671.78
2022-12-14T12:16:16.579Z,98676.09
2022-12-14T12:18:49.746Z,98669.16
2022-12-14T12:21:24.667Z,98671.78
2022-12-14T12:24:05.879Z,98669.16
2022-12-14T12:26:41.180Z,98669.16
2022-12-14T12:29:17.509Z,98668.28
2022-12-14T12:31:52.090Z,98663.88
2022-12-14T12:34:33.985Z,98662.94
2022-12-14T12:40:00.984Z,98666.41
2022-12-14T12:42:52.932Z,98669.84
2022-12-14T12:45:35.163Z,98668.06
2022-12-14T12:48:16.504Z,98665.53
2022-12-14T12:50:49.714Z,98665.44
2022-12-14T12:53:21.844Z,98664.63
2022-12-14T12:55:53.542Z,98667.25
2022-12-14T12:58:27.829Z,98666.34
2022-12-14T13:00:59.521Z,98665.50
2022-12-14T13:03:43.714Z,98668.06
2022-12-14T13:06:14.057Z,98658.47
2022-12-14T13:08:44.148Z,98660.22
2022-12-14T13:11:27.739Z,98662.84
2022-12-14T13:14:27.383Z,98658.53
2022-12-14T13:16:55.367Z,98662.00
2022-12-14T13:19:54.386Z,98665.41
2022-12-14T13:22:28.448Z,98673.28
2022-12-14T13:25:00.334Z,98672.38
2022-12-14T13:27:54.742Z,98676.69
2022-12-14T13:30:30.538Z,98670.66
2022-12-14T13:33:26.750Z,98673.28
2022-12-14T13:36:35.120Z,98665.41
2022-12-14T13:39:26.543Z,98669.72
2022-12-14T13:42:31.767Z,98669.72
2022-12-14T13:45:01.661Z,98665.34
2022-12-14T13:47:39.341Z,98660.94
2022-12-14T13:53:11.552Z,98668.78
2022-12-14T13:55:46.068Z,98667.06
2022-12-14T13:58:49.447Z,98675.78
2022-12-14T14:01:22.096Z,98673.19
2022-12-14T14:03:54.707Z,98673.19
2022-12-14T14:06:54.700Z,98674.03
2022-12-14T14:09:30.850Z,98668.88
2022-12-14T14:11:58.691Z,98669.72
2022-12-14T14:14:52.701Z,98667.16
2022-12-14T14:17:45.635Z,98675.00
2022-12-14T14:20:31.011Z,98670.63
2022-12-14T14:23:16.300Z,98674.13
2022-12-14T14:25:48.822Z,98668.91
2022-12-14T14:28:22.703Z,98675.88
2022-12-14T14:30:56.585Z,98684.66
2022-12-14T14:33:47.707Z,98687.25
2022-12-14T14:36:36.284Z,98681.19
2022-12-14T14:39:31.502Z,98686.44
2022-12-14T14:41:55.765Z,98684.72
2022-12-14T14:44:38.010Z,98696.97
2022-12-14T14:47:15.534Z,98697.06
2022-12-14T14:49:43.968Z,98706.69
2022-12-14T14:52:38.887Z,98698.03
2022-12-14T14:55:53.442Z,98700.69
2022-12-14T14:58:24.044Z,98703.34
2022-12-14T15:00:52.682Z,98706.00
2022-12-14T15:03:35.991Z,98713.00
2022-12-14T15:06:03.145Z,98707.81
2022-12-14T15:08:57.928Z,98700.91
2022-12-14T15:11:26.735Z,98702.69
2022-12-14T15:13:58.636Z,98713.19
2022-12-14T15:16:31.207Z,98713.22
2022-12-14T15:19:34.174Z,98723.72
2022-12-14T15:22:05.410Z,98723.75
2022-12-14T15:24:39.314Z,98725.50
2022-12-14T15:27:17.992Z,98732.47
2022-12-14T15:29:49.612Z,98732.53
2022-12-14T15:32:18.190Z,98740.38
2022-12-14T15:34:53.795Z,98736.03
2022-12-14T15:37:41.255Z,98739.53
2022-12-14T15:40:22.464Z,98730.91
2022-12-14T15:43:15.659Z,98737.88
2022-12-14T15:45:53.431Z,98740.50
2022-12-14T15:48:24.555Z,98746.59
2022-12-14T15:50:58.727Z,98744.88
2022-12-14T15:53:34.207Z,98749.22
2022-12-14T15:56:13.541Z,98748.41
2022-12-14T15:58:40.903Z,98751.00
2022-12-14T16:01:23.115Z,98746.69
2022-12-14T16:03:56.687Z,98751.03
2022-12-14T16:06:26.726Z,98755.38
2022-12-14T16:09:05.200Z,98744.97
2022-12-14T16:11:41.785Z,98758.88
2022-12-14T16:14:45.400Z,98753.69
2022-12-14T16:17:15.597Z,98753.69
2022-12-14T16:19:59.540Z,98746.75
2022-12-14T16:22:32.482Z,98746.78
2022-12-14T16:25:08.648Z,98741.59
2022-12-14T16:27:41.634Z,98751.13
2022-12-14T16:30:32.897Z,98764.16
2022-12-14T16:33:05.323Z,98753.75
2022-12-14T16:35:36.308Z,98749.41
2022-12-14T16:38:11.426Z,98754.63
2022-12-14T16:41:03.003Z,98764.16
2022-12-14T16:43:36.575Z,98758.13
2022-12-14T16:46:03.804Z,98763.31
2022-12-14T16:48:36.945Z,98771.09
2022-12-14T16:51:32.999Z,98765.91
2022-12-14T16:54:21.240Z,98771.09
2022-12-14T16:56:49.882Z,98774.56
2022-12-14T16:59:23.430Z,98777.19
2022-12-14T17:01:51.017Z,98772.00
2022-12-14T17:04:20.050Z,98784.09
2022-12-14T17:06:52.769Z,98774.56
2022-12-14T17:09:22.754Z,98778.91
2022-12-14T17:11:50.411Z,98789.31
2022-12-14T17:14:18.450Z,98795.34
2022-12-14T17:16:47.167Z,98797.09
2022-12-14T17:19:27.438Z,98810.09
2022-12-14T17:21:53.846Z,98817.03
2022-12-14T17:24:22.527Z,98811.78
2022-12-14T17:26:50.453Z,98814.41
2022-12-14T17:29:26.563Z,98814.41
2022-12-14T17:31:55.497Z,98814.41
2022-12-14T17:34:24.421Z,98816.13
2022-12-14T17:36:51.103Z,98823.94
2022-12-14T17:39:18.324Z,98821.31
2022-12-14T17:41:45.582Z,98817.84
2022-12-14T17:44:17.430Z,98820.44
2022-12-14T17:46:46.665Z,98816.09
2022-12-14T17:49:14.584Z,98821.28
2022-12-14T17:51:45.902Z,98819.53
2022-12-14T17:54:17.686Z,98825.59
2022-12-14T17:56:46.370Z,98828.19
2022-12-14T17:59:13.602Z,98822.09
2022-12-14T18:01:41.619Z,98832.47
2022-12-14T18:04:09.125Z,98834.22
2022-12-14T18:06:35.882Z,98834.22
2022-12-14T18:09:05.509Z,98842.00
2022-12-14T18:11:33.070Z,98829.91
2022-12-14T18:13:59.730Z,98832.44
2022-12-14T18:16:28.998Z,98832.44
2022-12-14T18:18:56.038Z,98822.88
2022-12-14T18:21:28.487Z,98828.06
2022-12-14T18:23:56.041Z,98830.66
2022-12-14T18:26:24.286Z,98828.03
2022-12-14T18:28:53.627Z,98840.97
2022-12-14T18:31:36.680Z,98847.03
2022-12-14T18:34:04.562Z,98852.25
2022-12-14T18:36:31.526Z,98852.22
2022-12-14T18:38:58.194Z,98854.81
2022-12-14T18:41:27.301Z,98857.41
2022-12-14T18:43:55.618Z,98857.41
2022-12-14T18:46:23.096Z,98856.50
2022-12-14T18:48:49.744Z,98847.81
2022-12-14T18:51:28.281Z,98849.53
2022-12-14T18:53:56.760Z,98844.34
2022-12-14T18:56:28.279Z,98844.34
2022-12-14T18:58:56.112Z,98846.06
2022-12-14T19:01:24.467Z,98855.53
2022-12-14T19:03:52.994Z,98861.59
2022-12-14T19:09:09.406Z,98861.56
2022-12-14T19:11:40.003Z,98858.09
2022-12-14T19:14:07.235Z,98861.53
2022-12-14T19:16:34.109Z,98867.53
2022-12-14T19:19:01.070Z,98871.00
2022-12-14T19:21:29.707Z,98871.00
2022-12-14T19:23:57.289Z,98880.47
2022-12-14T19:26:23.818Z,98881.34
2022-12-14T19:28:50.685Z,98875.31
2022-12-14T19:31:17.396Z,98872.72
2022-12-14T19:33:44.179Z,98870.13
2022-12-14T19:36:11.705Z,98875.28
2022-12-14T19:38:38.328Z,98873.53
2022-12-14T19:41:11.055Z,98884.72
2022-12-14T19:43:37.826Z,98882.94
2022-12-14T19:46:08.973Z,98889.81
2022-12-14T19:48:36.075Z,98886.38
2022-12-14T19:51:05.038Z,98888.09
2022-12-14T19:53:33.638Z,98894.09
2022-12-14T19:56:01.124Z,98893.22
2022-12-14T19:58:29.073Z,98891.47
2022-12-14T20:00:57.058Z,98893.16
2022-12-14T20:03:24.260Z,98887.94
2022-12-14T20:05:59.890Z,98897.41
2022-12-14T20:08:28.779Z,98895.63
2022-12-14T20:10:56.521Z,98897.31
2022-12-14T20:13:25.365Z,98905.09
2022-12-14T20:15:54.944Z,98892.97
2022-12-14T20:18:22.562Z,98901.59
2022-12-14T20:20:50.440Z,98898.13
2022-12-14T20:23:18.900Z,98903.28
2022-12-14T20:25:46.291Z,98901.56
2022-12-14T20:28:12.850Z,98905.00
2022-12-14T20:30:47.700Z,98907.59
2022-12-14T20:33:14.339Z,98907.53
2022-12-14T20:35:41.614Z,98913.56
2022-12-14T20:38:08.283Z,98924.75
2022-12-14T20:40:38.986Z,98918.59
2022-12-14T20:43:07.097Z,98932.38
2022-12-14T20:45:38.990Z,98931.50
2022-12-14T20:48:06.824Z,98935.78
2022-12-14T20:50:38.733Z,98937.53
2022-12-14T20:53:06.364Z,98935.78
2022-12-14T20:55:34.871Z,98948.69
2022-12-14T20:58:01.531Z,98953.00
2022-12-14T21:00:28.807Z,98953.81
2022-12-14T21:02:55.564Z,98958.13
2022-12-14T21:05:22.818Z,98965.84
2022-12-14T21:07:49.393Z,98959.69
2022-12-14T21:10:16.571Z,98967.47
2022-12-14T21:12:43.109Z,98966.59
2022-12-14T21:15:10.104Z,98972.63
2022-12-14T21:17:36.731Z,98976.94
2022-12-14T21:20:05.396Z,98976.00
2022-12-14T21:22:32.375Z,98980.28
2022-12-14T21:25:04.661Z,98981.97
2022-12-14T21:27:33.600Z,98989.75
2022-12-14T21:30:01.278Z,98990.59
